Time;durP1;ratioP1;P1;durP2;ratioP2;P2;SDS_P1;SDS_P2;PMS_P1;PMS_P2;Temp;Humidity;BMP_temperature;BMP_pressure;BME280_temperature;BME280_humidity;BME280_pressure;Samples;Min_cycle;Max_cycle;Signal;HPM_P1;HPM_P2
2022/07/03 00:00:24;;;;;;;0.20;0.20;;;;;;;16.91;55.12;100909.13;5105109;28;20095;-77
2022/07/03 00:02:50;;;;;;;0.20;0.20;;;;;;;16.93;55.13;100916.03;5086576;28;20024;-77
2022/07/03 00:05:16;;;;;;;2.30;1.95;;;;;;;16.93;55.16;100918.66;5086764;28;20024;-77
2022/07/03 00:07:41;;;;;;;0.20;0.20;;;;;;;16.83;55.02;100901.47;5104694;28;20572;-78
2022/07/03 00:10:08;;;;;;;0.20;0.20;;;;;;;16.76;55.07;100898.16;5104933;28;20028;-77
2022/07/03 00:12:34;;;;;;;0.50;0.50;;;;;;;16.73;54.72;100896.47;5104537;28;20051;-77
2022/07/03 00:14:59;;;;;;;0.20;0.20;;;;;;;16.87;54.96;100920.63;5086288;28;20073;-76
2022/07/03 00:17:24;;;;;;;0.20;0.20;;;;;;;16.83;54.92;100922.47;5104201;28;20508;-76
2022/07/03 00:19:50;;;;;;;0.20;0.20;;;;;;;16.84;54.82;100919.78;5086418;28;20016;-76
2022/07/03 00:22:16;;;;;;;0.20;0.20;;;;;;;16.84;54.90;100913.69;5086376;28;20031;-76
2022/07/03 00:24:47;;;;;;;0.20;0.20;;;;;;;16.84;54.96;100911.06;5109617;28;20043;-76
2022/07/03 00:27:14;;;;;;;;;;;;;;;16.82;55.07;100911.09;5125343;28;20038;-76
2022/07/03 00:29:44;;;;;;;0.20;0.20;;;;;;;16.80;55.36;100912.91;5124903;28;19904;-78
2022/07/03 00:32:12;;;;;;;0.20;0.20;;;;;;;16.72;55.40;100888.66;5125119;28;20599;-78
2022/07/03 00:34:40;;;;;;;0.20;0.20;;;;;;;16.82;55.43;100900.59;5124725;28;20020;-78
2022/07/03 00:37:10;;;;;;;0.52;0.52;;;;;;;16.88;55.59;100901.34;5106133;28;20072;-77
2022/07/03 00:39:38;;;;;;;0.20;0.20;;;;;;;16.77;55.80;100888.53;5106482;28;20026;-78
2022/07/03 00:42:05;;;;;;;0.20;0.20;;;;;;;16.79;56.10;100887.56;5124796;28;20023;-77
2022/07/03 00:44:33;;;;;;;0.20;0.20;;;;;;;16.81;56.32;100893.66;5124824;28;20134;-78
2022/07/03 00:47:02;;;;;;;0.20;0.20;;;;;;;16.84;56.41;100892.69;5124848;28;20067;-79
2022/07/03 00:49:31;;;;;;;0.20;0.20;;;;;;;16.92;56.54;100895.09;5124499;28;20023;-78
2022/07/03 00:51:58;;;;;;;0.45;0.45;;;;;;;16.90;56.71;100896.94;5124465;28;20034;-77
2022/07/03 00:54:25;;;;;;;0.20;0.20;;;;;;;16.90;56.59;100895.16;5106405;28;20410;-78
2022/07/03 00:56:52;;;;;;;0.20;0.20;;;;;;;16.90;56.33;100896.94;5105830;28;20019;-78
2022/07/03 00:59:18;;;;;;;0.20;0.20;;;;;;;16.84;56.10;100890.06;5105711;28;20035;-78
2022/07/03 01:01:45;;;;;;;0.20;0.20;;;;;;;16.73;56.14;100886.00;5124286;28;20019;-78
2022/07/03 01:04:22;;;;;;;0.20;0.20;;;;;;;16.74;56.28;100884.25;5124281;28;20042;-77
2022/07/03 01:07:00;;;;;;;0.20;0.20;;;;;;;16.75;56.27;100893.81;5124076;28;20411;-78
2022/07/03 01:10:03;;;;;;;0.20;0.20;;;;;;;16.63;56.44;100878.41;5124788;28;20041;-79
2022/07/03 01:12:41;;;;;;;0.20;0.20;;;;;;;16.64;56.66;100886.25;5105990;28;20028;-77
2022/07/03 01:15:27;;;;;;;0.20;0.20;;;;;;;16.60;56.74;100882.84;5124507;28;20030;-72
2022/07/03 01:18:14;;;;;;;0.20;0.20;;;;;;;16.55;56.93;100886.50;5124059;28;20031;-72
2022/07/03 01:20:42;;;;;;;0.20;0.20;;;;;;;16.48;57.33;100889.22;5124239;28;20056;-70
2022/07/03 01:23:24;;;;;;;0.55;0.55;;;;;;;16.28;57.53;100853.06;5124093;28;20106;-72
2022/07/03 01:25:51;;;;;;;0.30;0.30;;;;;;;16.47;57.55;100877.03;5124101;28;20055;-72
2022/07/03 01:28:20;;;;;;;0.22;0.22;;;;;;;16.44;58.15;100873.63;5105580;28;20016;-72
2022/07/03 01:30:52;;;;;;;0.30;0.30;;;;;;;16.41;58.48;100881.56;5123992;28;20024;-70
2022/07/03 01:33:22;;;;;;;0.20;0.20;;;;;;;16.42;58.41;100875.44;5124143;28;20114;-72
2022/07/03 01:36:09;;;;;;;0.20;0.20;;;;;;;16.44;58.73;100884.13;5124184;28;20281;-72
2022/07/03 01:38:36;;;;;;;0.20;0.20;;;;;;;16.44;58.65;100876.25;5123540;28;20045;-71
2022/07/03 01:41:04;;;;;;;0.20;0.20;;;;;;;16.46;58.40;100877.09;5123594;28;20076;-72
2022/07/03 01:43:33;;;;;;;0.20;0.20;;;;;;;16.47;58.75;100884.03;5123503;28;20079;-72
2022/07/03 01:46:01;;;;;;;0.20;0.20;;;;;;;16.47;58.97;100884.91;5125341;28;20024;-72
2022/07/03 01:48:29;;;;;;;0.20;0.20;;;;;;;16.46;59.18;100879.72;5127865;28;20456;-71
2022/07/03 01:50:55;;;;;;;0.20;0.20;;;;;;;16.48;59.10;100885.78;5109740;28;20027;-71
2022/07/03 01:53:24;;;;;;;0.20;0.20;;;;;;;16.42;59.23;100864.97;5109820;28;20027;-71
2022/07/03 01:55:51;;;;;;;0.30;0.30;;;;;;;16.50;59.01;100881.38;5127858;28;20024;-71
2022/07/03 01:58:16;;;;;;;0.20;0.20;;;;;;;16.44;58.99;100866.66;5127506;28;20507;-70
2022/07/03 02:00:56;;;;;;;0.20;0.20;;;;;;;16.54;59.05;100887.38;5128033;28;20039;-70
2022/07/03 02:03:27;;;;;;;0.20;0.20;;;;;;;16.55;59.22;100879.47;5127774;28;20031;-71
2022/07/03 02:06:04;;;;;;;0.20;0.20;;;;;;;16.48;59.16;100870.88;5109230;28;20024;-71
2022/07/03 02:08:44;;;;;;;0.20;0.20;;;;;;;16.59;59.08;100880.25;5127427;28;20023;-71
2022/07/03 02:11:10;;;;;;;0.20;0.20;;;;;;;16.58;59.30;100879.38;5127809;28;20016;-72
2022/07/03 02:14:10;;;;;;;0.50;0.50;;;;;;;16.62;58.87;100887.16;5127371;28;20019;-71
2022/07/03 02:16:51;;;;;;;0.20;0.20;;;;;;;16.57;59.50;100890.78;5127459;28;20023;-72
2022/07/03 02:19:17;;;;;;;0.30;0.30;;;;;;;16.56;59.56;100886.44;5127022;28;20493;-71
2022/07/03 02:21:51;;;;;;;0.20;0.20;;;;;;;16.56;59.52;100891.69;5127416;28;20031;-71
2022/07/03 02:24:25;;;;;;;0.20;0.20;;;;;;;16.57;59.61;100887.28;5127116;28;20063;-72
2022/07/03 02:26:59;;;;;;;0.20;0.20;;;;;;;16.57;59.52;100887.28;5127645;28;20201;-71
2022/07/03 02:29:40;;;;;;;0.20;0.20;;;;;;;16.54;59.63;100880.38;5126883;28;20032;-71
2022/07/03 02:32:12;;;;;;;0.20;0.20;;;;;;;16.55;59.64;100891.72;5127003;28;20042;-72
2022/07/03 02:34:42;;;;;;;0.30;0.30;;;;;;;16.43;59.92;100864.94;5127103;28;20035;-71
2022/07/03 02:37:15;;;;;;;0.20;0.20;;;;;;;16.62;59.77;100885.41;5108737;28;20019;-72
2022/07/03 02:39:43;;;;;;;0.20;0.20;;;;;;;16.65;59.76;100887.09;5126764;28;20109;-71
2022/07/03 02:42:22;;;;;;;0.20;0.20;;;;;;;16.56;59.85;100875.97;5126875;28;20051;-71
2022/07/03 02:44:53;;;;;;;0.20;0.20;;;;;;;16.72;59.72;100888.66;5108471;28;20019;-72
2022/07/03 02:47:43;;;;;;;0.20;0.20;;;;;;;16.73;60.03;100885.13;5126832;28;20031;-72
2022/07/03 02:50:11;;;;;;;0.40;0.40;;;;;;;16.80;60.00;100885.81;5126693;28;20061;-72
2022/07/03 02:52:43;;;;;;;0.30;0.30;;;;;;;16.83;59.68;100896.22;5126645;28;20024;-72
2022/07/03 02:55:26;;;;;;;0.30;0.30;;;;;;;16.87;59.56;100889.16;5126733;28;20104;-72
2022/07/03 02:58:16;;;;;;;0.20;0.20;;;;;;;16.95;59.53;100884.53;5126528;28;20108;-72
2022/07/03 03:00:52;;;;;;;0.20;0.20;;;;;;;17.04;59.20;100884.31;5109780;28;20024;-72
2022/07/03 03:03:24;;;;;;;0.20;0.20;;;;;;;17.04;59.46;100868.56;5126628;28;20023;-72
2022/07/03 03:05:53;;;;;;;0.20;0.20;;;;;;;17.24;58.98;100888.13;5126888;28;20424;-72
2022/07/03 03:08:29;;;;;;;0.20;0.20;;;;;;;17.31;58.96;100892.31;5126327;28;20045;-71
2022/07/03 03:11:01;;;;;;;0.20;0.20;;;;;;;17.26;58.79;100888.97;5107776;28;20023;-71
2022/07/03 03:13:31;;;;;;;0.20;0.20;;;;;;;17.09;59.05;100863.22;5107677;28;20061;-71
2022/07/03 03:16:10;;;;;;;0.20;0.20;;;;;;;17.19;58.87;100885.66;5126120;28;20516;-71
2022/07/03 03:18:38;;;;;;;0.20;0.20;;;;;;;17.22;59.34;100887.34;5125929;28;20028;-71
2022/07/03 03:21:06;;;;;;;0.20;0.20;;;;;;;17.22;59.44;100869.81;5126274;28;20033;-70
2022/07/03 03:23:44;;;;;;;0.20;0.20;;;;;;;17.57;59.55;100888.03;5126161;28;20227;-71
2022/07/03 03:26:12;;;;;;;0.20;0.20;;;;;;;17.84;59.01;100874.97;5125934;28;20054;-71
2022/07/03 03:28:40;;;;;;;0.20;0.20;;;;;;;18.17;58.10;100888.88;5125924;28;20133;-71
2022/07/03 03:31:08;;;;;;;0.20;0.20;;;;;;;18.14;57.37;100874.09;5126027;28;20015;-71
2022/07/03 03:33:39;;;;;;;0.20;0.20;;;;;;;18.12;57.34;100888.16;5107602;28;20023;-71
2022/07/03 03:36:06;;;;;;;0.20;0.20;;;;;;;17.97;57.17;100890.38;5107684;28;20047;-71
2022/07/03 03:38:32;;;;;;;0.20;0.20;;;;;;;17.63;57.35;100863.41;5107332;28;20053;-70
2022/07/03 03:40:57;;;;;;;0.20;0.20;;;;;;;17.66;57.62;100886.06;5125842;28;20023;-71
2022/07/03 03:43:22;;;;;;;0.20;0.20;;;;;;;17.50;57.62;100889.16;5125753;28;20110;-70
2022/07/03 03:45:48;;;;;;;0.20;0.20;;;;;;;17.38;58.06;100881.66;5107188;28;20027;-71
2022/07/03 03:48:13;;;;;;;0.20;0.20;;;;;;;17.29;58.25;100883.63;5125583;28;20011;-71
2022/07/03 03:50:42;;;;;;;0.43;0.43;;;;;;;17.14;58.09;100868.34;5125946;28;20023;-70
2022/07/03 03:53:08;;;;;;;0.20;0.20;;;;;;;17.17;58.26;100878.75;5125567;28;20098;-70
2022/07/03 03:55:33;;;;;;;0.20;0.20;;;;;;;17.12;58.36;100876.25;5107124;28;20114;-70
2022/07/03 03:58:01;;;;;;;0.20;0.20;;;;;;;17.04;58.59;100871.19;5125400;28;20072;-71
2022/07/03 04:00:27;;;;;;;0.20;0.20;;;;;;;16.94;58.89;100880.19;5125468;28;20541;-71
2022/07/03 04:02:52;;;;;;;0.20;0.20;;;;;;;16.90;58.92;100873.34;5125381;28;20035;-71
2022/07/03 04:05:17;;;;;;;0.20;0.20;;;;;;;16.93;59.03;100879.34;5107106;28;20126;-71
2022/07/03 04:07:43;;;;;;;0.20;0.20;;;;;;;16.88;59.42;100867.25;5125112;28;20506;-71
2022/07/03 04:10:08;;;;;;;0.20;0.20;;;;;;;16.93;59.11;100875.88;5124833;28;20030;-71
2022/07/03 04:12:33;;;;;;;0.20;0.20;;;;;;;16.98;59.50;100879.22;5106736;28;20019;-71
2022/07/03 04:14:59;;;;;;;0.20;0.20;;;;;;;16.98;59.61;100884.47;5125251;28;20327;-70
2022/07/03 04:17:25;;;;;;;0.30;0.30;;;;;;;16.82;59.61;100860.44;5124908;28;20015;-71
2022/07/03 04:19:50;;;;;;;0.20;0.20;;;;;;;16.85;60.20;100874.31;5124986;28;20020;-71
2022/07/03 04:22:15;;;;;;;0.20;0.20;;;;;;;16.77;60.64;100876.28;5125233;28;20099;-71
2022/07/03 04:24:41;;;;;;;0.55;0.55;;;;;;;16.64;60.96;100869.66;5124936;28;20081;-71
2022/07/03 04:27:06;;;;;;;0.20;0.20;;;;;;;16.48;61.13;100860.41;5125067;28;20015;-71
2022/07/03 04:29:32;;;;;;;0.20;0.20;;;;;;;16.55;61.42;100887.31;5124741;28;20039;-71
2022/07/03 04:31:57;;;;;;;0.20;0.20;;;;;;;16.35;61.37;100865.13;5106492;28;20020;-71
2022/07/03 04:34:22;;;;;;;0.20;0.20;;;;;;;16.54;61.52;100890.84;5124897;28;20049;-71
2022/07/03 04:36:49;;;;;;;0.20;0.20;;;;;;;16.34;61.47;100860.78;5124731;28;20032;-71
2022/07/03 04:39:14;;;;;;;0.30;0.30;;;;;;;16.51;61.66;100884.81;5124392;28;20295;-72
2022/07/03 04:41:39;;;;;;;0.32;0.32;;;;;;;16.46;62.01;100887.56;5124612;28;20020;-71
2022/07/03 04:44:05;;;;;;;0.20;0.20;;;;;;;16.38;62.30;100884.28;5124178;28;20522;-71
2022/07/03 04:46:30;;;;;;;0.20;0.20;;;;;;;16.32;62.81;100890.53;5124366;28;20087;-71
2022/07/03 04:48:55;;;;;;;0.20;0.20;;;;;;;16.16;63.30;100869.09;5105894;28;20022;-71
2022/07/03 04:51:21;;;;;;;0.20;0.20;;;;;;;16.10;63.91;100881.44;5106055;28;20020;-72
2022/07/03 04:53:46;;;;;;;0.20;0.20;;;;;;;16.08;63.94;100871.91;5124244;28;20463;-71
2022/07/03 04:56:12;;;;;;;0.20;0.20;;;;;;;16.09;64.29;100882.34;5124482;28;20053;-72
2022/07/03 04:58:37;;;;;;;0.20;0.20;;;;;;;16.05;64.17;100875.47;5123979;28;20030;-71
2022/07/03 05:01:03;;;;;;;0.20;0.20;;;;;;;15.94;63.98;100857.34;5124286;28;20027;-71
2022/07/03 05:03:28;;;;;;;0.20;0.20;;;;;;;16.09;64.52;100874.47;5124356;28;20161;-71
2022/07/03 05:05:53;;;;;;;0.20;0.20;;;;;;;15.98;64.78;100860.78;5124412;28;20023;-71
2022/07/03 05:08:20;;;;;;;0.30;0.30;;;;;;;16.10;64.90;100872.75;5105820;28;20517;-71
2022/07/03 05:10:46;;;;;;;0.20;0.20;;;;;;;16.06;65.20;100882.41;5124680;28;20108;-72
2022/07/03 05:13:11;;;;;;;0.20;0.20;;;;;;;15.93;65.65;100863.47;5124133;28;20263;-71
2022/07/03 05:15:36;;;;;;;0.20;0.20;;;;;;;15.83;65.50;100857.59;5125058;28;20039;-69
2022/07/03 05:18:02;;;;;;;0.20;0.20;;;;;;;16.02;65.70;100883.41;5124153;28;20030;-70
2022/07/03 05:20:30;;;;;;;0.20;0.20;;;;;;;15.86;66.11;100875.00;5123547;28;20285;-71
2022/07/03 05:23:01;;;;;;;0.20;0.20;;;;;;;15.92;66.61;100876.59;5124624;28;20039;-71
2022/07/03 05:25:29;;;;;;;0.35;0.35;;;;;;;15.68;66.80;100853.59;5124028;28;20050;-72
2022/07/03 05:27:55;;;;;;;0.20;0.20;;;;;;;15.76;67.28;100863.00;5123794;28;20034;-71
2022/07/03 05:30:22;;;;;;;0.20;0.20;;;;;;;15.86;67.74;100875.84;5124161;28;20039;-71
2022/07/03 05:32:48;;;;;;;0.20;0.20;;;;;;;15.83;67.94;100877.69;5123901;28;20030;-71
2022/07/03 05:35:13;;;;;;;0.25;0.25;;;;;;;15.84;68.23;100868.94;5123803;28;20028;-71
2022/07/03 05:37:39;;;;;;;0.20;0.20;;;;;;;15.81;68.75;100872.50;5123764;28;20034;-71
2022/07/03 05:40:05;;;;;;;0.35;0.35;;;;;;;15.90;69.02;100881.00;5123791;28;20058;-70
2022/07/03 05:42:31;;;;;;;0.30;0.30;;;;;;;15.80;69.01;100855.03;5123414;28;20559;-72
2022/07/03 05:44:56;;;;;;;0.20;0.20;;;;;;;15.90;69.38;100874.03;5105415;28;20023;-70
2022/07/03 05:47:22;;;;;;;0.65;0.43;;;;;;;15.92;69.74;100868.75;5123873;28;20031;-71
2022/07/03 05:49:47;;;;;;;0.20;0.20;;;;;;;15.99;70.04;100867.72;5123651;28;20024;-70
2022/07/03 05:52:13;;;;;;;0.20;0.20;;;;;;;16.02;70.22;100872.94;5123967;28;20023;-72
2022/07/03 05:54:38;;;;;;;0.20;0.20;;;;;;;16.07;70.75;100868.41;5123785;28;20019;-70
2022/07/03 05:57:04;;;;;;;0.20;0.20;;;;;;;15.93;70.70;100836.44;5123823;28;20041;-71
2022/07/03 05:59:30;;;;;;;0.20;0.20;;;;;;;16.02;70.96;100861.56;5105317;28;20023;-71
2022/07/03 06:01:55;;;;;;;0.20;0.20;;;;;;;16.27;71.24;100874.06;5123632;28;20028;-72
2022/07/03 06:04:20;;;;;;;0.20;0.20;;;;;;;16.30;71.50;100871.38;5123663;28;20023;-71
2022/07/03 06:06:46;;;;;;;0.20;0.20;;;;;;;16.23;71.56;100850.56;5123571;28;20038;-69
2022/07/03 06:09:11;;;;;;;0.20;0.20;;;;;;;16.33;71.83;100864.31;5123264;28;20015;-71
2022/07/03 06:11:36;;;;;;;0.22;0.22;;;;;;;16.40;71.98;100861.53;5123523;28;20072;-71
2022/07/03 06:14:02;;;;;;;0.20;0.20;;;;;;;16.32;72.42;100839.00;5123314;28;20505;-71
2022/07/03 06:16:27;;;;;;;0.20;0.20;;;;;;;16.32;72.44;100843.38;5105235;28;20020;-71
2022/07/03 06:18:52;;;;;;;0.20;0.20;;;;;;;16.35;72.55;100835.44;5123199;28;20043;-71
2022/07/03 06:21:18;;;;;;;0.20;0.20;;;;;;;16.31;72.74;100826.78;5123247;28;20083;-71
2022/07/03 06:23:43;;;;;;;0.30;0.30;;;;;;;16.49;72.93;100856.03;5104693;28;20030;-70
2022/07/03 06:26:09;;;;;;;0.20;0.20;;;;;;;16.50;73.01;100846.44;5123647;28;20035;-71
2022/07/03 06:28:34;;;;;;;0.30;0.30;;;;;;;16.52;73.22;100852.50;5123208;28;20055;-71
2022/07/03 06:30:59;;;;;;;0.20;0.20;;;;;;;16.53;73.40;100841.97;5123341;28;20024;-70
2022/07/03 06:33:25;;;;;;;0.20;0.20;;;;;;;16.58;73.83;100845.31;5127103;28;20103;-70
2022/07/03 06:35:50;;;;;;;0.30;0.30;;;;;;;16.54;74.09;100848.06;5127321;28;20023;-70
2022/07/03 06:38:15;;;;;;;0.35;0.35;;;;;;;16.54;74.36;100846.31;5126911;28;20031;-70
2022/07/03 06:40:41;;;;;;;0.20;0.20;;;;;;;16.59;74.61;100843.56;5127134;28;20034;-70
2022/07/03 06:43:06;;;;;;;0.20;0.20;;;;;;;16.56;74.74;100831.41;5126993;28;20034;-71
2022/07/03 06:45:31;;;;;;;0.28;0.28;;;;;;;16.65;74.70;100840.78;5127039;28;20062;-71
2022/07/03 06:47:57;;;;;;;0.20;0.20;;;;;;;16.63;74.92;100832.06;5127072;28;20023;-71
2022/07/03 06:50:22;;;;;;;0.20;0.20;;;;;;;16.64;74.93;100831.19;5127022;28;20023;-71
2022/07/03 06:52:47;;;;;;;0.20;0.20;;;;;;;16.65;75.22;100837.28;5108418;28;20019;-71
2022/07/03 06:55:13;;;;;;;1.38;1.27;;;;;;;16.66;75.65;100833.78;5127144;28;20020;-72
2022/07/03 06:57:39;;;;;;;0.20;0.20;;;;;;;16.48;75.64;100807.16;5126574;28;20455;-71
2022/07/03 07:00:05;;;;;;;0.20;0.20;;;;;;;16.44;76.33;100814.22;5108601;28;20016;-71
2022/07/03 07:02:30;;;;;;;0.30;0.30;;;;;;;16.45;76.71;100828.22;5126722;28;20051;-70
2022/07/03 07:04:56;;;;;;;0.40;0.40;;;;;;;16.41;76.72;100823.94;5127109;28;20031;-70
2022/07/03 07:07:21;;;;;;;0.22;0.22;;;;;;;16.38;77.01;100817.03;5126709;28;20410;-71
2022/07/03 07:09:46;;;;;;;0.30;0.30;;;;;;;16.25;77.41;100806.00;5126457;28;20035;-71
2022/07/03 07:12:12;;;;;;;0.20;0.20;;;;;;;16.37;77.50;100820.56;5126587;28;20027;-68
2022/07/03 07:14:37;;;;;;;0.20;0.20;;;;;;;16.25;78.05;100820.84;5126287;28;20050;-70
2022/07/03 07:17:03;;;;;;;0.20;0.20;;;;;;;16.34;77.98;100823.25;5107919;28;20142;-70
2022/07/03 07:19:28;;;;;;;0.20;0.20;;;;;;;16.21;77.80;100784.25;5107604;28;20030;-69
2022/07/03 07:21:54;;;;;;;0.20;0.20;;;;;;;16.31;78.15;100811.06;5126128;28;20024;-69
2022/07/03 07:24:19;;;;;;;0.20;0.20;;;;;;;16.27;78.16;100817.31;5126117;28;20067;-69
2022/07/03 07:26:44;;;;;;;0.30;0.30;;;;;;;16.05;78.22;100773.34;5126495;28;20088;-69
2022/07/03 07:29:10;;;;;;;0.22;0.22;;;;;;;16.14;78.11;100806.28;5125987;28;20020;-70
2022/07/03 07:31:35;;;;;;;0.20;0.20;;;;;;;16.17;77.86;100800.97;5126153;28;20024;-71
2022/07/03 07:34:04;;;;;;;0.40;0.40;;;;;;;16.35;77.26;100820.59;5126056;28;20023;-72
2022/07/03 07:36:29;;;;;;;0.20;0.20;;;;;;;16.28;77.19;100813.78;5125921;28;20035;-71
2022/07/03 07:38:55;;;;;;;0.20;0.20;;;;;;;16.20;76.57;100795.63;5107494;28;20027;-75
2022/07/03 07:41:20;;;;;;;0.20;0.20;;;;;;;16.19;76.64;100793.94;5107398;28;20573;-75
2022/07/03 07:43:46;;;;;;;0.20;0.20;;;;;;;16.27;76.21;100791.09;5124551;28;20024;-75
2022/07/03 07:46:11;;;;;;;0.20;0.20;;;;;;;16.34;75.47;100804.91;5125767;28;20463;-69
2022/07/03 07:48:36;;;;;;;0.20;0.20;;;;;;;16.24;74.89;100791.19;5125545;28;20031;-69
2022/07/03 07:51:02;;;;;;;0.20;0.20;;;;;;;15.96;75.53;100782.22;5125742;28;20052;-69
2022/07/03 07:53:27;;;;;;;0.20;0.20;;;;;;;16.05;75.86;100790.78;5107337;28;20408;-72
2022/07/03 07:55:53;;;;;;;0.20;0.20;;;;;;;16.12;75.83;100787.09;5125575;28;20016;-72
2022/07/03 07:58:18;;;;;;;0.20;0.20;;;;;;;15.92;76.20;100769.25;5125088;28;20015;-71
2022/07/03 08:06:14;;;;;;;0.20;0.20;;;;;;;15.82;77.35;100800.03;5125204;28;20025;-71
2022/07/03 08:08:39;;;;;;;0.28;0.28;;;;;;;15.73;77.32;100778.41;5125061;28;20087;-71
2022/07/03 08:11:05;;;;;;;0.20;0.20;;;;;;;15.78;77.77;100782.69;5107121;28;20027;-72
2022/07/03 08:13:30;;;;;;;0.30;0.30;;;;;;;15.70;77.88;100767.19;5124940;28;20039;-73
2022/07/03 08:15:55;;;;;;;0.20;0.20;;;;;;;15.61;78.31;100781.31;5125043;28;20043;-72
2022/07/03 08:18:21;;;;;;;0.30;0.30;;;;;;;15.55;78.48;100757.94;5124853;28;20035;-71
2022/07/03 08:20:46;;;;;;;0.20;0.20;;;;;;;15.54;79.09;100778.03;5125204;28;20031;-71
2022/07/03 08:23:11;;;;;;;0.20;0.20;;;;;;;15.48;79.22;100760.69;5124963;28;20031;-70
2022/07/03 08:25:37;;;;;;;0.20;0.20;;;;;;;15.35;79.67;100772.34;5124990;28;20168;-70
2022/07/03 08:28:02;;;;;;;0.20;0.20;;;;;;;15.24;80.18;100768.19;5124512;28;20031;-71
2022/07/03 08:30:28;;;;;;;0.73;0.73;;;;;;;15.16;81.27;100774.50;5124618;28;20023;-69
2022/07/03 08:32:56;;;;;;;0.20;0.20;;;;;;;14.99;81.99;100760.03;5124768;28;20050;-70
2022/07/03 08:35:21;;;;;;;0.32;0.32;;;;;;;15.01;82.26;100773.06;5124633;28;20027;-69
2022/07/03 08:37:47;;;;;;;0.20;0.20;;;;;;;14.86;82.58;100754.19;5106154;28;20019;-69
2022/07/03 08:40:16;;;;;;;1.05;1.00;;;;;;;14.92;83.11;100784.59;5124634;28;20038;-72
2022/07/03 08:42:48;;;;;;;0.20;0.20;;;;;;;14.85;83.39;100776.00;5124330;28;20435;-68
2022/07/03 08:45:15;;;;;;;0.30;0.30;;;;;;;14.67;83.68;100766.75;5124660;28;20029;-69
2022/07/03 08:47:46;;;;;;;0.30;0.30;;;;;;;14.72;84.06;100777.97;5124574;28;20028;-66
2022/07/03 08:50:13;;;;;;;0.20;0.20;;;;;;;14.75;84.16;100785.75;5124568;28;20020;-66
2022/07/03 08:52:39;;;;;;;0.20;0.20;;;;;;;14.70;84.63;100779.75;5124447;28;20167;-66
2022/07/03 08:55:06;;;;;;;0.30;0.30;;;;;;;14.70;84.61;100800.66;5124218;28;20053;-65
2022/07/03 08:57:35;;;;;;;0.30;0.30;;;;;;;14.61;85.17;100802.56;5105791;28;20029;-66
2022/07/03 09:00:03;;;;;;;0.60;0.60;;;;;;;14.55;85.24;100805.31;5124136;28;20024;-66
2022/07/03 09:02:30;;;;;;;0.50;0.50;;;;;;;14.59;85.31;100798.25;5124077;28;20028;-68
2022/07/03 09:04:57;;;;;;;0.20;0.20;;;;;;;14.56;84.96;100793.94;5124255;28;20098;-70
2022/07/03 09:07:25;;;;;;;0.20;0.20;;;;;;;14.54;85.50;100806.16;5124188;28;20019;-70
2022/07/03 09:09:51;;;;;;;0.20;0.20;;;;;;;14.52;85.09;100796.66;5124043;28;20019;-71
2022/07/03 09:12:17;;;;;;;0.20;0.20;;;;;;;14.44;85.71;100795.03;5123977;28;20026;-74
2022/07/03 09:14:43;;;;;;;0.30;0.30;;;;;;;14.52;85.47;100807.94;5123703;28;20031;-73
2022/07/03 09:17:10;;;;;;;0.20;0.20;;;;;;;14.55;85.15;100802.69;5123963;28;20034;-74
2022/07/03 09:19:40;;;;;;;0.20;0.20;;;;;;;14.49;85.33;100818.44;5123832;28;20027;-74
2022/07/03 09:22:21;;;;;;;0.30;0.30;;;;;;;14.47;85.53;100825.47;5123270;28;20020;-74
2022/07/03 09:24:48;;;;;;;0.20;0.20;;;;;;;14.48;85.25;100827.19;5124185;28;20046;-72
2022/07/03 09:27:17;;;;;;;0.30;0.30;;;;;;;14.51;84.95;100827.13;5124402;28;20103;-72
2022/07/03 09:29:57;;;;;;;10.10;1.48;;;;;;;14.53;84.92;100820.13;5124186;28;20104;-71
2022/07/03 09:32:23;;;;;;;0.20;0.20;;;;;;;14.52;84.83;100826.22;5124155;28;20023;-70
2022/07/03 09:34:49;;;;;;;0.30;0.30;;;;;;;14.54;84.60;100820.97;5123988;28;20030;-71
2022/07/03 09:37:24;;;;;;;0.30;0.30;;;;;;;14.60;84.53;100824.34;5105537;28;20019;-70
2022/07/03 09:39:57;;;;;;;0.20;0.20;;;;;;;14.40;84.45;100782.91;5123748;28;20015;-70
2022/07/03 09:42:22;;;;;;;0.20;0.20;;;;;;;14.48;84.41;100798.44;5124048;28;20032;-70
2022/07/03 09:44:47;;;;;;;0.85;0.85;;;;;;;14.56;84.62;100809.63;5123759;28;20100;-73
2022/07/03 09:47:18;;;;;;;0.30;0.30;;;;;;;14.54;84.67;100803.56;5123976;28;20030;-73
2022/07/03 09:49:50;;;;;;;0.20;0.20;;;;;;;14.48;84.80;100790.63;5123838;28;20073;-73
2022/07/03 09:52:26;;;;;;;;;;;;;;;14.51;84.63;100780.09;5124376;28;20122;-71
2022/07/03 09:54:51;;;;;;;0.28;0.28;;;;;;;14.35;84.95;100780.41;5123872;28;19933;-70
2022/07/03 09:57:18;;;;;;;0.30;0.30;;;;;;;14.18;85.92;100751.97;5105322;28;20280;-70
2022/07/03 09:59:44;;;;;;;0.20;0.20;;;;;;;14.26;86.05;100775.34;5123386;28;20015;-70
2022/07/03 10:02:09;;;;;;;0.20;0.20;;;;;;;14.28;86.38;100790.97;5123889;28;20049;-72
2022/07/03 10:04:35;;;;;;;0.20;0.20;;;;;;;14.23;86.68;100791.06;5105300;28;20104;-70
2022/07/03 10:07:00;;;;;;;0.20;0.20;;;;;;;14.23;87.07;100796.28;5125395;28;20027;-69
2022/07/03 10:09:28;;;;;;;0.30;0.30;;;;;;;14.25;87.08;100799.72;5127804;28;20022;-70
2022/07/03 10:11:54;;;;;;;0.30;0.30;;;;;;;14.23;87.35;100802.34;5127604;28;20069;-71
2022/07/03 10:14:22;;;;;;;0.20;0.20;;;;;;;14.27;87.25;100795.34;5127317;28;20022;-70
2022/07/03 10:16:48;;;;;;;0.20;0.20;;;;;;;14.22;87.53;100781.50;5109083;28;20028;-70
2022/07/03 10:19:18;;;;;;;0.20;0.20;;;;;;;14.13;87.83;100765.13;5127211;28;20112;-70
2022/07/03 10:21:49;;;;;;;0.20;0.20;;;;;;;14.30;87.76;100778.75;5127531;28;20027;-70
2022/07/03 10:24:17;;;;;;;0.22;0.22;;;;;;;14.30;87.81;100777.00;5127000;28;20043;-70
2022/07/03 10:26:43;;;;;;;0.30;0.30;;;;;;;14.31;88.09;100756.97;5127467;28;20513;-70
2022/07/03 10:29:10;;;;;;;0.30;0.30;;;;;;;14.34;88.29;100759.53;5127209;28;20023;-70
2022/07/03 10:31:38;;;;;;;0.25;0.25;;;;;;;14.35;88.59;100754.28;5127339;28;20023;-70
2022/07/03 10:34:04;;;;;;;0.45;0.45;;;;;;;14.29;88.62;100741.34;5127195;28;20207;-69
2022/07/03 10:36:30;;;;;;;0.30;0.30;;;;;;;14.37;88.70;100744.66;5127248;28;20023;-69
2022/07/03 10:38:59;;;;;;;0.30;0.30;;;;;;;14.43;88.95;100732.38;5127033;28;20028;-68
2022/07/03 10:47:04;;;;;;;0.35;0.35;;;;;;;14.59;89.11;100754.69;5127183;28;20081;-68
2022/07/03 10:49:29;;;;;;;0.77;0.77;;;;;;;14.59;89.52;100773.00;5126734;28;20012;-69
2022/07/03 10:52:00;;;;;;;0.30;0.30;;;;;;;14.69;89.02;100783.25;5126988;28;20062;-69
2022/07/03 10:54:33;;;;;;;0.20;0.20;;;;;;;14.63;89.63;100785.09;5126959;28;20059;-68
2022/07/03 10:56:59;;;;;;;1.42;1.33;;;;;;;14.62;89.64;100778.16;5126948;28;20026;-68
2022/07/03 10:59:45;;;;;;;0.30;0.30;;;;;;;14.67;89.85;100766.75;5126460;28;20016;-69
2022/07/03 11:02:32;;;;;;;0.82;0.77;;;;;;;14.63;89.97;100769.41;5126823;28;20020;-68
2022/07/03 11:05:00;;;;;;;0.30;0.30;;;;;;;14.58;90.31;100766.06;5126900;28;20029;-68
2022/07/03 11:07:34;;;;;;;0.20;0.20;;;;;;;14.61;90.37;100775.56;5126693;28;20440;-68
2022/07/03 11:10:08;;;;;;;0.20;0.20;;;;;;;14.57;90.92;100773.91;5107968;28;20019;-69
2022/07/03 11:12:58;;;;;;;0.20;0.20;;;;;;;14.59;91.45;100774.72;5126651;28;20015;-69
2022/07/03 11:15:27;;;;;;;0.20;0.20;;;;;;;14.57;91.85;100759.09;5126513;28;20027;-67
2022/07/03 11:18:04;;;;;;;0.20;0.20;;;;;;;14.55;92.37;100762.63;5125623;28;20072;-69
2022/07/03 11:20:30;;;;;;;0.70;0.70;;;;;;;14.54;92.97;100774.81;5126436;28;20015;-69
2022/07/03 11:22:58;;;;;;;0.63;0.63;;;;;;;14.53;93.37;100775.72;5126445;28;20031;-70
2022/07/03 11:25:25;;;;;;;0.22;0.22;;;;;;;14.55;93.70;100771.34;5125980;28;20415;-69
2022/07/03 11:27:52;;;;;;;0.22;0.22;;;;;;;14.54;93.68;100751.31;5126061;28;20035;-68
2022/07/03 11:30:18;;;;;;;0.20;0.20;;;;;;;14.60;93.80;100740.72;5126249;28;20103;-68
2022/07/03 11:32:44;;;;;;;0.20;0.20;;;;;;;14.65;93.84;100745.88;5126035;28;20019;-69
2022/07/03 11:35:46;;;;;;;0.30;0.30;;;;;;;14.69;94.40;100762.34;5126254;28;20177;-68
2022/07/03 11:38:18;;;;;;;0.30;0.30;;;;;;;14.71;94.44;100765.81;5125660;28;20028;-67
2022/07/03 11:40:47;;;;;;;0.20;0.20;;;;;;;14.75;94.32;100747.41;5126059;28;20049;-70
2022/07/03 11:43:12;;;;;;;0.20;0.20;;;;;;;14.81;94.16;100733.38;5125753;28;20027;-69